sensor_id;sensor_type;location;lat;lon;timestamp;pressure;altitude;pressure_sealevel;temperature;humidity
15674;BME280;7937;48.090;16.212;2023-05-29T00:02:17;97771.00;;;7.89;84.64
15674;BME280;7937;48.090;16.212;2023-05-29T00:05:19;97738.88;;;7.61;85.01
15674;BME280;7937;48.090;16.212;2023-05-29T00:08:22;97863.97;;;8.31;85.19
15674;BME280;7937;48.090;16.212;2023-05-29T00:11:24;97617.09;;;6.74;85.56
15674;BME280;7937;48.090;16.212;2023-05-29T00:14:27;97753.66;;;7.68;85.47
15674;BME280;7937;48.090;16.212;2023-05-29T00:17:30;97773.78;;;7.58;86.12
15674;BME280;7937;48.090;16.212;2023-05-29T00:20:35;97848.41;;;8.16;86.21
15674;BME280;7937;48.090;16.212;2023-05-29T00:23:38;97854.53;;;8.17;86.79
15674;BME280;7937;48.090;16.212;2023-05-29T00:26:41;97776.50;;;7.51;87.19
15674;BME280;7937;48.090;16.212;2023-05-29T00:29:43;97808.34;;;7.69;87.07
15674;BME280;7937;48.090;16.212;2023-05-29T00:32:45;97654.94;;;6.75;86.82
15674;BME280;7937;48.090;16.212;2023-05-29T00:35:48;97609.78;;;6.26;87.11
15674;BME280;7937;48.090;16.212;2023-05-29T00:38:51;97856.16;;;7.99;87.77
15674;BME280;7937;48.090;16.212;2023-05-29T00:41:53;97807.22;;;7.59;87.68
15674;BME280;7937;48.090;16.212;2023-05-29T00:44:56;97775.00;;;7.37;87.61
15674;BME280;7937;48.090;16.212;2023-05-29T00:47:59;97556.66;;;6.03;87.69
15674;BME280;7937;48.090;16.212;2023-05-29T00:51:01;97864.63;;;7.90;88.36
15674;BME280;7937;48.090;16.212;2023-05-29T00:54:07;97699.44;;;6.91;88.04
15674;BME280;7937;48.090;16.212;2023-05-29T00:57:10;97680.59;;;6.81;87.72
15674;BME280;7937;48.090;16.212;2023-05-29T01:00:14;97671.53;;;6.88;87.42
15674;BME280;7937;48.090;16.212;2023-05-29T01:03:18;97759.19;;;7.30;87.03
15674;BME280;7937;48.090;16.212;2023-05-29T01:06:23;97743.31;;;7.23;87.59
15674;BME280;7937;48.090;16.212;2023-05-29T01:09:25;97616.72;;;6.20;87.38
15674;BME280;7937;48.090;16.212;2023-05-29T01:12:45;97733.69;;;7.11;87.59
15674;BME280;7937;48.090;16.212;2023-05-29T01:16:06;97841.66;;;7.84;87.41
15674;BME280;7937;48.090;16.212;2023-05-29T01:19:24;97659.75;;;6.66;87.38
15674;BME280;7937;48.090;16.212;2023-05-29T01:29:46;97788.25;;;7.37;87.22
15674;BME280;7937;48.090;16.212;2023-05-29T01:32:50;97821.47;;;7.39;87.44
15674;BME280;7937;48.090;16.212;2023-05-29T01:35:53;97534.59;;;5.84;87.19
15674;BME280;7937;48.090;16.212;2023-05-29T01:38:57;97655.75;;;6.57;87.26
15674;BME280;7937;48.090;16.212;2023-05-29T01:42:01;97691.22;;;6.74;87.27
15674;BME280;7937;48.090;16.212;2023-05-29T01:45:04;97836.84;;;7.74;86.83
15674;BME280;7937;48.090;16.212;2023-05-29T01:48:08;97743.81;;;6.95;87.24
15674;BME280;7937;48.090;16.212;2023-05-29T01:51:12;97653.50;;;6.29;87.60
15674;BME280;7937;48.090;16.212;2023-05-29T01:54:15;97734.59;;;6.73;87.94
15674;BME280;7937;48.090;16.212;2023-05-29T01:57:18;97754.88;;;6.86;87.67
15674;BME280;7937;48.090;16.212;2023-05-29T02:00:21;97733.41;;;6.69;88.46
15674;BME280;7937;48.090;16.212;2023-05-29T02:03:24;97801.41;;;7.00;88.49
15674;BME280;7937;48.090;16.212;2023-05-29T02:06:27;97789.41;;;6.97;88.80
15674;BME280;7937;48.090;16.212;2023-05-29T02:09:29;97749.50;;;6.67;89.16
15674;BME280;7937;48.090;16.212;2023-05-29T02:12:32;97760.81;;;6.81;88.89
15674;BME280;7937;48.090;16.212;2023-05-29T02:15:35;97541.44;;;5.35;88.41
15674;BME280;7937;48.090;16.212;2023-05-29T02:18:37;97665.00;;;6.16;88.77
15674;BME280;7937;48.090;16.212;2023-05-29T02:21:40;97780.00;;;7.02;89.05
15674;BME280;7937;48.090;16.212;2023-05-29T02:24:43;97628.94;;;5.97;88.89
15674;BME280;7937;48.090;16.212;2023-05-29T02:27:45;97681.03;;;6.21;89.42
15674;BME280;7937;48.090;16.212;2023-05-29T02:30:48;97841.34;;;7.23;89.76
15674;BME280;7937;48.090;16.212;2023-05-29T02:33:50;97724.84;;;6.42;89.48
15674;BME280;7937;48.090;16.212;2023-05-29T02:36:52;97821.25;;;7.16;90.05
15674;BME280;7937;48.090;16.212;2023-05-29T02:39:54;97659.16;;;6.07;89.83
15674;BME280;7937;48.090;16.212;2023-05-29T02:42:57;97667.09;;;6.07;89.52
15674;BME280;7937;48.090;16.212;2023-05-29T02:46:00;97741.00;;;6.65;89.66
15674;BME280;7937;48.090;16.212;2023-05-29T02:49:02;97750.66;;;6.78;90.01
15674;BME280;7937;48.090;16.212;2023-05-29T02:52:05;97756.81;;;6.72;90.34
15674;BME280;7937;48.090;16.212;2023-05-29T02:55:08;97712.50;;;6.29;90.31
15674;BME280;7937;48.090;16.212;2023-05-29T02:58:10;97826.66;;;7.03;90.16
15674;BME280;7937;48.090;16.212;2023-05-29T03:01:13;97685.38;;;6.09;90.43
15674;BME280;7937;48.090;16.212;2023-05-29T03:04:15;97746.78;;;6.49;90.43
15674;BME280;7937;48.090;16.212;2023-05-29T03:07:19;97660.22;;;6.00;90.21
15674;BME280;7937;48.090;16.212;2023-05-29T03:10:22;97819.56;;;6.96;90.28
15674;BME280;7937;48.090;16.212;2023-05-29T03:13:24;97774.31;;;6.73;90.83
15674;BME280;7937;48.090;16.212;2023-05-29T03:16:34;97716.59;;;6.32;90.45
15674;BME280;7937;48.090;16.212;2023-05-29T03:19:38;97468.03;;;4.67;90.48
15674;BME280;7937;48.090;16.212;2023-05-29T03:22:41;97694.00;;;6.29;91.06
15674;BME280;7937;48.090;16.212;2023-05-29T03:25:44;97512.09;;;5.11;90.53
15674;BME280;7937;48.090;16.212;2023-05-29T03:28:47;97653.09;;;6.00;90.57
15674;BME280;7937;48.090;16.212;2023-05-29T03:31:49;97629.00;;;5.77;90.48
15674;BME280;7937;48.090;16.212;2023-05-29T03:34:58;97696.44;;;6.31;90.55
15674;BME280;7937;48.090;16.212;2023-05-29T03:38:01;97636.47;;;5.93;90.64
15674;BME280;7937;48.090;16.212;2023-05-29T03:41:04;97811.38;;;7.05;90.65
15674;BME280;7937;48.090;16.212;2023-05-29T03:44:08;97554.50;;;5.16;90.55
15674;BME280;7937;48.090;16.212;2023-05-29T03:47:12;97598.81;;;5.59;90.42
15674;BME280;7937;48.090;16.212;2023-05-29T03:50:15;97661.00;;;6.00;90.52
15674;BME280;7937;48.090;16.212;2023-05-29T03:53:19;97738.84;;;6.49;90.88
15674;BME280;7937;48.090;16.212;2023-05-29T03:56:21;97496.88;;;5.07;90.71
15674;BME280;7937;48.090;16.212;2023-05-29T03:59:24;97797.09;;;6.74;90.90
15674;BME280;7937;48.090;16.212;2023-05-29T04:02:26;97835.91;;;7.18;90.96
15674;BME280;7937;48.090;16.212;2023-05-29T04:05:29;97753.59;;;6.70;91.01
15674;BME280;7937;48.090;16.212;2023-05-29T04:08:31;97843.66;;;7.20;91.22
15674;BME280;7937;48.090;16.212;2023-05-29T04:11:34;97837.16;;;7.16;91.58
15674;BME280;7937;48.090;16.212;2023-05-29T04:14:36;97745.56;;;6.45;91.24
15674;BME280;7937;48.090;16.212;2023-05-29T04:17:38;97826.97;;;7.13;91.70
15674;BME280;7937;48.090;16.212;2023-05-29T04:20:41;97788.28;;;6.87;92.15
15674;BME280;7937;48.090;16.212;2023-05-29T04:23:44;97738.19;;;6.54;91.92
15674;BME280;7937;48.090;16.212;2023-05-29T04:26:46;97841.47;;;7.35;92.05
15674;BME280;7937;48.090;16.212;2023-05-29T04:29:49;97768.44;;;6.71;92.52
15674;BME280;7937;48.090;16.212;2023-05-29T04:32:51;97809.78;;;7.22;92.89
15674;BME280;7937;48.090;16.212;2023-05-29T04:35:56;97872.88;;;7.57;92.65
15674;BME280;7937;48.090;16.212;2023-05-29T04:39:00;97851.84;;;7.62;92.59
15674;BME280;7937;48.090;16.212;2023-05-29T04:42:03;97854.41;;;7.68;92.50
15674;BME280;7937;48.090;16.212;2023-05-29T04:45:06;97750.47;;;6.98;92.45
15674;BME280;7937;48.090;16.212;2023-05-29T04:48:11;97763.34;;;7.19;92.28
15674;BME280;7937;48.090;16.212;2023-05-29T04:51:13;97704.34;;;6.87;93.05
15674;BME280;7937;48.090;16.212;2023-05-29T04:54:16;97838.50;;;7.68;93.02
15674;BME280;7937;48.090;16.212;2023-05-29T04:57:19;97812.59;;;7.70;93.67
15674;BME280;7937;48.090;16.212;2023-05-29T05:00:22;97647.69;;;6.70;93.10
15674;BME280;7937;48.090;16.212;2023-05-29T05:03:25;97803.97;;;7.57;92.76
15674;BME280;7937;48.090;16.212;2023-05-29T05:06:27;97538.38;;;6.26;92.46
15674;BME280;7937;48.090;16.212;2023-05-29T05:09:30;97829.41;;;8.19;92.75
15674;BME280;7937;48.090;16.212;2023-05-29T05:12:37;97832.56;;;8.28;92.75
15674;BME280;7937;48.090;16.212;2023-05-29T05:15:39;97604.53;;;6.88;93.04
15674;BME280;7937;48.090;16.212;2023-05-29T05:18:43;97838.28;;;8.62;92.92
15674;BME280;7937;48.090;16.212;2023-05-29T05:21:46;97861.31;;;8.79;92.81
15674;BME280;7937;48.090;16.212;2023-05-29T05:24:49;97780.06;;;8.48;92.89
15674;BME280;7937;48.090;16.212;2023-05-29T05:27:52;97645.28;;;7.90;92.83
15674;BME280;7937;48.090;16.212;2023-05-29T05:30:56;97769.53;;;8.84;92.72
15674;BME280;7937;48.090;16.212;2023-05-29T05:33:59;97804.47;;;9.34;91.97
15674;BME280;7937;48.090;16.212;2023-05-29T05:37:02;97863.13;;;9.86;91.96
15674;BME280;7937;48.090;16.212;2023-05-29T05:40:05;97831.66;;;9.71;91.76
15674;BME280;7937;48.090;16.212;2023-05-29T05:43:13;97688.34;;;8.88;91.48
15674;BME280;7937;48.090;16.212;2023-05-29T05:46:35;97760.31;;;9.56;91.20
15674;BME280;7937;48.090;16.212;2023-05-29T05:49:38;97805.25;;;10.05;90.67
15674;BME280;7937;48.090;16.212;2023-05-29T05:52:41;97656.56;;;9.16;89.60
15674;BME280;7937;48.090;16.212;2023-05-29T05:55:46;97589.44;;;9.09;86.38
15674;BME280;7937;48.090;16.212;2023-05-29T05:58:49;97794.88;;;10.61;85.23
15674;BME280;7937;48.090;16.212;2023-05-29T06:01:54;97610.72;;;9.78;84.38
15674;BME280;7937;48.090;16.212;2023-05-29T06:05:00;97621.88;;;9.92;84.63
15674;BME280;7937;48.090;16.212;2023-05-29T06:08:02;97616.81;;;10.07;83.25
15674;BME280;7937;48.090;16.212;2023-05-29T06:11:05;97638.19;;;10.41;83.65
15674;BME280;7937;48.090;16.212;2023-05-29T06:14:09;97886.22;;;12.19;83.27
15674;BME280;7937;48.090;16.212;2023-05-29T06:17:11;97857.66;;;12.20;82.59
15674;BME280;7937;48.090;16.212;2023-05-29T06:20:14;97865.44;;;12.43;81.87
15674;BME280;7937;48.090;16.212;2023-05-29T06:23:16;97875.50;;;12.85;80.37
15674;BME280;7937;48.090;16.212;2023-05-29T06:26:19;97829.63;;;12.66;78.41
15674;BME280;7937;48.090;16.212;2023-05-29T06:29:31;97787.81;;;12.82;77.52
15674;BME280;7937;48.090;16.212;2023-05-29T06:32:42;97836.91;;;13.30;75.39
15674;BME280;7937;48.090;16.212;2023-05-29T06:35:44;97855.13;;;13.65;74.57
15674;BME280;7937;48.090;16.212;2023-05-29T06:38:47;97870.53;;;13.85;72.81
15674;BME280;7937;48.090;16.212;2023-05-29T06:41:50;97891.16;;;14.32;64.30
15674;BME280;7937;48.090;16.212;2023-05-29T06:44:53;97844.25;;;14.29;64.26
15674;BME280;7937;48.090;16.212;2023-05-29T06:47:57;97689.38;;;13.58;58.96
15674;BME280;7937;48.090;16.212;2023-05-29T06:51:00;97871.59;;;15.09;61.44
15674;BME280;7937;48.090;16.212;2023-05-29T06:54:14;97902.50;;;15.42;60.72
15674;BME280;7937;48.090;16.212;2023-05-29T06:57:20;97839.13;;;15.21;59.00
15674;BME280;7937;48.090;16.212;2023-05-29T07:00:22;97842.06;;;15.60;56.00
15674;BME280;7937;48.090;16.212;2023-05-29T07:03:36;97813.09;;;15.62;53.89
15674;BME280;7937;48.090;16.212;2023-05-29T07:06:39;97864.88;;;15.98;54.99
15674;BME280;7937;48.090;16.212;2023-05-29T07:09:44;97837.75;;;15.90;57.29
15674;BME280;7937;48.090;16.212;2023-05-29T07:12:46;97906.19;;;16.38;59.24
15674;BME280;7937;48.090;16.212;2023-05-29T07:15:50;97827.00;;;15.95;60.79
15674;BME280;7937;48.090;16.212;2023-05-29T07:18:58;97745.66;;;15.74;52.33
15674;BME280;7937;48.090;16.212;2023-05-29T07:22:04;97715.56;;;15.82;52.94
15674;BME280;7937;48.090;16.212;2023-05-29T07:25:07;97875.28;;;17.00;52.59
15674;BME280;7937;48.090;16.212;2023-05-29T07:28:09;97872.00;;;17.03;52.71
15674;BME280;7937;48.090;16.212;2023-05-29T07:31:24;97670.97;;;15.76;53.33
15674;BME280;7937;48.090;16.212;2023-05-29T07:34:27;97830.97;;;16.83;52.53
15674;BME280;7937;48.090;16.212;2023-05-29T07:37:30;97777.22;;;16.72;48.96
15674;BME280;7937;48.090;16.212;2023-05-29T07:40:34;97893.69;;;17.62;50.08
15674;BME280;7937;48.090;16.212;2023-05-29T07:44:03;97830.06;;;17.37;50.27
15674;BME280;7937;48.090;16.212;2023-05-29T07:47:05;97826.56;;;17.36;52.44
15674;BME280;7937;48.090;16.212;2023-05-29T07:50:14;97921.41;;;18.01;49.35
15674;BME280;7937;48.090;16.212;2023-05-29T07:53:17;97880.66;;;17.79;47.65
15674;BME280;7937;48.090;16.212;2023-05-29T07:56:21;97908.91;;;17.82;47.56
15674;BME280;7937;48.090;16.212;2023-05-29T07:59:23;97886.91;;;17.69;48.34
15674;BME280;7937;48.090;16.212;2023-05-29T08:02:26;97881.22;;;17.71;50.63
15674;BME280;7937;48.090;16.212;2023-05-29T08:05:54;97857.78;;;17.71;48.00
15674;BME280;7937;48.090;16.212;2023-05-29T08:08:57;97885.69;;;17.86;46.32
15674;BME280;7937;48.090;16.212;2023-05-29T08:12:02;97888.16;;;17.82;47.28
15674;BME280;7937;48.090;16.212;2023-05-29T08:15:07;97849.63;;;17.47;47.75
15674;BME280;7937;48.090;16.212;2023-05-29T08:18:11;97905.47;;;18.05;47.97
15674;BME280;7937;48.090;16.212;2023-05-29T08:21:14;97878.16;;;17.83;49.95
15674;BME280;7937;48.090;16.212;2023-05-29T08:24:16;97893.25;;;18.13;48.00
15674;BME280;7937;48.090;16.212;2023-05-29T08:27:19;97756.03;;;17.34;47.13
15674;BME280;7937;48.090;16.212;2023-05-29T08:30:23;97840.75;;;18.05;49.86
15674;BME280;7937;48.090;16.212;2023-05-29T08:33:26;97900.00;;;18.63;46.73
15674;BME280;7937;48.090;16.212;2023-05-29T08:36:29;97911.97;;;18.52;47.33
15674;BME280;7937;48.090;16.212;2023-05-29T08:39:34;97898.44;;;18.33;46.95
15674;BME280;7937;48.090;16.212;2023-05-29T08:45:59;97895.28;;;18.50;45.78
15674;BME280;7937;48.090;16.212;2023-05-29T08:49:03;97848.91;;;18.24;44.72
15674;BME280;7937;48.090;16.212;2023-05-29T08:52:27;97930.00;;;18.56;47.53
15674;BME280;7937;48.090;16.212;2023-05-29T08:55:36;97869.22;;;18.40;45.82
15674;BME280;7937;48.090;16.212;2023-05-29T08:58:39;97880.22;;;18.68;46.62
15674;BME280;7937;48.090;16.212;2023-05-29T09:01:44;97877.94;;;18.56;44.86
15674;BME280;7937;48.090;16.212;2023-05-29T09:04:47;97943.31;;;18.96;47.72
15674;BME280;7937;48.090;16.212;2023-05-29T09:07:59;97923.34;;;18.97;42.27
15674;BME280;7937;48.090;16.212;2023-05-29T09:11:02;97877.38;;;18.59;44.12
15674;BME280;7937;48.090;16.212;2023-05-29T09:14:04;97900.00;;;18.87;43.19
15674;BME280;7937;48.090;16.212;2023-05-29T09:17:09;97902.16;;;18.85;43.74
15674;BME280;7937;48.090;16.212;2023-05-29T09:20:15;97932.19;;;19.21;44.80
15674;BME280;7937;48.090;16.212;2023-05-29T09:23:20;97857.28;;;18.89;43.11
15674;BME280;7937;48.090;16.212;2023-05-29T09:26:36;97589.53;;;17.17;41.78
15674;BME280;7937;48.090;16.212;2023-05-29T09:30:00;97941.22;;;19.30;41.11
15674;BME280;7937;48.090;16.212;2023-05-29T09:33:04;97860.56;;;19.05;40.95
15674;BME280;7937;48.090;16.212;2023-05-29T09:36:19;97867.22;;;18.94;41.46
15674;BME280;7937;48.090;16.212;2023-05-29T09:39:22;97798.25;;;18.64;41.65
15674;BME280;7937;48.090;16.212;2023-05-29T09:42:32;97926.22;;;19.62;40.59
15674;BME280;7937;48.090;16.212;2023-05-29T09:46:15;97875.19;;;19.23;40.20
15674;BME280;7937;48.090;16.212;2023-05-29T09:49:22;97894.50;;;19.49;40.20
15674;BME280;7937;48.090;16.212;2023-05-29T09:52:28;97945.34;;;19.98;39.39
15674;BME280;7937;48.090;16.212;2023-05-29T09:55:33;97876.63;;;19.34;38.71
15674;BME280;7937;48.090;16.212;2023-05-29T09:58:38;97888.69;;;19.42;39.57
15674;BME280;7937;48.090;16.212;2023-05-29T10:01:48;97893.69;;;19.67;38.28
15674;BME280;7937;48.090;16.212;2023-05-29T10:04:52;97888.22;;;19.53;36.74
15674;BME280;7937;48.090;16.212;2023-05-29T10:07:54;97894.88;;;19.42;38.21
15674;BME280;7937;48.090;16.212;2023-05-29T10:11:01;97877.44;;;19.34;41.44
15674;BME280;7937;48.090;16.212;2023-05-29T10:14:16;97862.31;;;19.33;40.42
15674;BME280;7937;48.090;16.212;2023-05-29T10:17:23;97945.66;;;19.97;39.81
15674;BME280;7937;48.090;16.212;2023-05-29T10:20:28;97857.88;;;19.24;41.20
15674;BME280;7937;48.090;16.212;2023-05-29T10:23:37;97940.84;;;19.94;40.28
15674;BME280;7937;48.090;16.212;2023-05-29T10:26:46;97876.28;;;19.22;40.86
15674;BME280;7937;48.090;16.212;2023-05-29T10:30:04;97916.03;;;19.73;43.59
15674;BME280;7937;48.090;16.212;2023-05-29T10:36:47;97902.97;;;19.42;41.05
15674;BME280;7937;48.090;16.212;2023-05-29T10:39:52;97752.38;;;18.45;42.95
15674;BME280;7937;48.090;16.212;2023-05-29T10:42:55;97699.75;;;17.86;43.29
15674;BME280;7937;48.090;16.212;2023-05-29T10:46:01;97779.44;;;18.16;44.29
15674;BME280;7937;48.090;16.212;2023-05-29T10:49:18;97922.47;;;19.20;43.26
15674;BME280;7937;48.090;16.212;2023-05-29T10:52:20;97901.69;;;19.02;41.89
15674;BME280;7937;48.090;16.212;2023-05-29T10:55:34;97721.56;;;18.08;42.79
15674;BME280;7937;48.090;16.212;2023-05-29T10:58:37;97924.31;;;19.63;43.07
15674;BME280;7937;48.090;16.212;2023-05-29T11:01:40;97891.00;;;19.67;42.91
15674;BME280;7937;48.090;16.212;2023-05-29T11:04:42;97853.97;;;19.68;44.90
15674;BME280;7937;48.090;16.212;2023-05-29T11:07:56;97831.84;;;19.47;42.57
15674;BME280;7937;48.090;16.212;2023-05-29T11:10:59;97702.94;;;18.87;40.33
15674;BME280;7937;48.090;16.212;2023-05-29T11:14:04;97884.28;;;20.11;40.81
15674;BME280;7937;48.090;16.212;2023-05-29T11:17:48;97870.06;;;20.05;38.92
15674;BME280;7937;48.090;16.212;2023-05-29T11:20:57;97661.91;;;18.85;39.41
15674;BME280;7937;48.090;16.212;2023-05-29T11:24:02;97916.00;;;20.52;39.39
15674;BME280;7937;48.090;16.212;2023-05-29T11:27:09;97896.13;;;20.43;38.96
15674;BME280;7937;48.090;16.212;2023-05-29T11:30:15;97898.47;;;20.77;37.76
15674;BME280;7937;48.090;16.212;2023-05-29T11:33:30;97863.59;;;20.48;38.17
15674;BME280;7937;48.090;16.212;2023-05-29T11:36:33;97852.03;;;20.42;40.11
15674;BME280;7937;48.090;16.212;2023-05-29T11:39:41;97857.84;;;20.63;38.80
15674;BME280;7937;48.090;16.212;2023-05-29T11:43:05;97866.28;;;20.61;41.38
15674;BME280;7937;48.090;16.212;2023-05-29T11:46:28;97911.44;;;21.02;37.40
15674;BME280;7937;48.090;16.212;2023-05-29T11:49:34;97860.13;;;20.83;36.61
15674;BME280;7937;48.090;16.212;2023-05-29T11:52:46;97875.06;;;20.95;36.47
15674;BME280;7937;48.090;16.212;2023-05-29T11:55:48;97837.50;;;20.79;34.24
15674;BME280;7937;48.090;16.212;2023-05-29T11:58:51;97908.28;;;21.23;33.79
15674;BME280;7937;48.090;16.212;2023-05-29T12:02:03;97897.88;;;21.16;34.32
15674;BME280;7937;48.090;16.212;2023-05-29T12:05:07;97831.66;;;20.86;33.77
15674;BME280;7937;48.090;16.212;2023-05-29T12:08:12;97884.81;;;21.32;33.38
15674;BME280;7937;48.090;16.212;2023-05-29T12:11:23;97860.94;;;21.20;34.40
15674;BME280;7937;48.090;16.212;2023-05-29T12:14:26;97876.50;;;21.51;34.49
15674;BME280;7937;48.090;16.212;2023-05-29T12:17:28;97823.38;;;21.27;35.33
15674;BME280;7937;48.090;16.212;2023-05-29T12:20:32;97833.66;;;21.53;33.71
15674;BME280;7937;48.090;16.212;2023-05-29T12:23:37;97640.63;;;20.21;35.92
15674;BME280;7937;48.090;16.212;2023-05-29T12:26:42;97873.00;;;21.73;35.73
15674;BME280;7937;48.090;16.212;2023-05-29T12:29:44;97823.41;;;21.50;35.12
15674;BME280;7937;48.090;16.212;2023-05-29T12:32:52;97878.91;;;21.97;35.01
15674;BME280;7937;48.090;16.212;2023-05-29T12:36:07;97860.38;;;21.99;33.05
15674;BME280;7937;48.090;16.212;2023-05-29T12:39:11;97810.19;;;21.48;31.63
15674;BME280;7937;48.090;16.212;2023-05-29T12:42:16;97878.53;;;21.90;32.64
15674;BME280;7937;48.090;16.212;2023-05-29T12:45:19;97816.28;;;21.54;33.16
15674;BME280;7937;48.090;16.212;2023-05-29T12:48:26;97829.09;;;21.40;35.83
15674;BME280;7937;48.090;16.212;2023-05-29T12:51:29;97870.03;;;21.83;32.08
15674;BME280;7937;48.090;16.212;2023-05-29T12:54:32;97846.63;;;21.64;32.98
15674;BME280;7937;48.090;16.212;2023-05-29T12:57:35;97875.63;;;21.86;32.87
15674;BME280;7937;48.090;16.212;2023-05-29T13:00:39;97812.91;;;21.57;32.45
15674;BME280;7937;48.090;16.212;2023-05-29T13:03:57;97872.63;;;21.97;32.80
15674;BME280;7937;48.090;16.212;2023-05-29T13:07:07;97620.88;;;20.34;33.71
15674;BME280;7937;48.090;16.212;2023-05-29T13:10:14;97452.16;;;19.27;32.71
15674;BME280;7937;48.090;16.212;2023-05-29T13:13:17;97746.53;;;21.23;32.48
15674;BME280;7937;48.090;16.212;2023-05-29T13:16:21;97775.72;;;21.26;33.74
15674;BME280;7937;48.090;16.212;2023-05-29T13:19:25;97866.16;;;21.75;32.59
15674;BME280;7937;48.090;16.212;2023-05-29T13:22:28;97839.75;;;21.58;32.91
15674;BME280;7937;48.090;16.212;2023-05-29T13:25:33;97789.78;;;21.28;33.47
15674;BME280;7937;48.090;16.212;2023-05-29T13:28:35;97820.38;;;21.51;33.85
15674;BME280;7937;48.090;16.212;2023-05-29T13:31:38;97794.06;;;21.52;32.58
15674;BME280;7937;48.090;16.212;2023-05-29T13:34:42;97858.25;;;21.87;32.36
15674;BME280;7937;48.090;16.212;2023-05-29T13:37:45;97804.75;;;21.48;32.03
15674;BME280;7937;48.090;16.212;2023-05-29T13:40:48;97841.06;;;21.70;34.01
15674;BME280;7937;48.090;16.212;2023-05-29T13:43:50;97748.00;;;21.07;35.43
15674;BME280;7937;48.090;16.212;2023-05-29T13:46:54;97830.41;;;21.73;32.68
15674;BME280;7937;48.090;16.212;2023-05-29T13:49:58;97792.22;;;21.61;32.46
15674;BME280;7937;48.090;16.212;2023-05-29T13:53:00;97816.88;;;21.82;32.58
15674;BME280;7937;48.090;16.212;2023-05-29T13:56:03;97808.22;;;21.71;31.65
15674;BME280;7937;48.090;16.212;2023-05-29T13:59:05;97808.53;;;21.70;34.16
15674;BME280;7937;48.090;16.212;2023-05-29T14:02:08;97767.03;;;21.16;32.33
15674;BME280;7937;48.090;16.212;2023-05-29T14:05:10;97779.00;;;21.37;32.10
15674;BME280;7937;48.090;16.212;2023-05-29T14:08:13;97778.00;;;21.55;29.51
15674;BME280;7937;48.090;16.212;2023-05-29T14:11:17;97506.53;;;19.48;29.62
15674;BME280;7937;48.090;16.212;2023-05-29T14:14:20;97848.50;;;21.86;31.15
15674;BME280;7937;48.090;16.212;2023-05-29T14:17:23;97566.22;;;19.88;34.51
15674;BME280;7937;48.090;16.212;2023-05-29T14:20:25;97750.84;;;21.47;29.96
15674;BME280;7937;48.090;16.212;2023-05-29T14:23:28;97744.44;;;21.20;30.08
15674;BME280;7937;48.090;16.212;2023-05-29T14:26:30;97525.72;;;19.60;29.65
15674;BME280;7937;48.090;16.212;2023-05-29T14:29:33;97545.50;;;19.83;30.22
15674;BME280;7937;48.090;16.212;2023-05-29T14:32:36;97533.13;;;19.68;31.27
15674;BME280;7937;48.090;16.212;2023-05-29T14:35:38;97724.63;;;21.11;31.21
15674;BME280;7937;48.090;16.212;2023-05-29T14:38:41;97640.09;;;20.33;34.19
15674;BME280;7937;48.090;16.212;2023-05-29T14:41:45;97517.91;;;19.72;33.95
15674;BME280;7937;48.090;16.212;2023-05-29T14:44:47;97435.25;;;19.21;31.67
15674;BME280;7937;48.090;16.212;2023-05-29T14:47:50;97471.00;;;19.41;31.84
15674;BME280;7937;48.090;16.212;2023-05-29T14:50:53;97835.66;;;21.70;31.21
15674;BME280;7937;48.090;16.212;2023-05-29T14:53:56;97687.84;;;20.65;29.53
15674;BME280;7937;48.090;16.212;2023-05-29T14:56:59;97754.22;;;21.07;29.65
15674;BME280;7937;48.090;16.212;2023-05-29T15:00:03;97699.41;;;20.79;29.37
15674;BME280;7937;48.090;16.212;2023-05-29T15:03:06;97704.34;;;20.64;29.70
15674;BME280;7937;48.090;16.212;2023-05-29T15:06:10;97736.44;;;20.93;30.58
15674;BME280;7937;48.090;16.212;2023-05-29T15:09:14;97690.16;;;20.58;32.78
15674;BME280;7937;48.090;16.212;2023-05-29T15:12:17;97651.78;;;20.20;36.41
15674;BME280;7937;48.090;16.212;2023-05-29T15:15:20;97827.41;;;21.30;30.90
15674;BME280;7937;48.090;16.212;2023-05-29T15:18:24;97509.97;;;19.12;33.76
15674;BME280;7937;48.090;16.212;2023-05-29T15:21:26;97691.53;;;20.19;32.38
15674;BME280;7937;48.090;16.212;2023-05-29T15:24:29;97597.19;;;20.04;31.68
15674;BME280;7937;48.090;16.212;2023-05-29T15:27:34;97715.19;;;20.64;31.02
15674;BME280;7937;48.090;16.212;2023-05-29T15:30:37;97535.44;;;19.61;30.08
15674;BME280;7937;48.090;16.212;2023-05-29T15:33:39;97797.16;;;21.36;31.19
15674;BME280;7937;48.090;16.212;2023-05-29T15:36:42;97419.09;;;18.80;36.62
15674;BME280;7937;48.090;16.212;2023-05-29T15:39:45;97408.91;;;18.63;32.11
15674;BME280;7937;48.090;16.212;2023-05-29T15:42:47;97633.81;;;19.88;34.52
15674;BME280;7937;48.090;16.212;2023-05-29T15:45:49;97837.00;;;21.13;32.24
15674;BME280;7937;48.090;16.212;2023-05-29T15:48:52;97355.03;;;18.30;32.30
15674;BME280;7937;48.090;16.212;2023-05-29T15:51:55;97763.31;;;20.67;33.97
15674;BME280;7937;48.090;16.212;2023-05-29T15:54:58;97487.16;;;18.91;32.72
15674;BME280;7937;48.090;16.212;2023-05-29T15:58:03;97389.88;;;18.27;32.86
15674;BME280;7937;48.090;16.212;2023-05-29T16:01:08;97411.78;;;18.25;33.92
15674;BME280;7937;48.090;16.212;2023-05-29T16:04:11;97620.69;;;19.53;33.20
15674;BME280;7937;48.090;16.212;2023-05-29T16:07:15;97390.06;;;18.17;32.02
15674;BME280;7937;48.090;16.212;2023-05-29T16:10:18;97670.94;;;19.96;33.38
15674;BME280;7937;48.090;16.212;2023-05-29T16:13:22;97744.66;;;20.15;36.59
15674;BME280;7937;48.090;16.212;2023-05-29T16:16:26;97435.84;;;18.36;35.88
15674;BME280;7937;48.090;16.212;2023-05-29T16:19:32;97450.19;;;18.17;38.07
15674;BME280;7937;48.090;16.212;2023-05-29T16:22:35;97713.69;;;19.94;35.26
15674;BME280;7937;48.090;16.212;2023-05-29T16:25:43;97584.06;;;18.92;38.39
15674;BME280;7937;48.090;16.212;2023-05-29T16:28:46;97538.47;;;18.44;39.28
15674;BME280;7937;48.090;16.212;2023-05-29T16:31:48;97805.84;;;20.11;40.11
15674;BME280;7937;48.090;16.212;2023-05-29T16:34:51;97572.44;;;18.45;39.96
15674;BME280;7937;48.090;16.212;2023-05-29T16:37:56;97631.59;;;18.74;40.73
15674;BME280;7937;48.090;16.212;2023-05-29T16:40:59;97797.31;;;19.76;41.71